Time;durP1;ratioP1;P1;durP2;ratioP2;P2;SDS_P1;SDS_P2;PMS_P1;PMS_P2;Temp;Humidity;BMP_temperature;BMP_pressure;BME280_temperature;BME280_humidity;BME280_pressure;Samples;Min_cycle;Max_cycle;Signal;HPM_P1;HPM_P2
2022/09/19 00:01:18;;;;;;;7.55;1.20;;;12.20;99.90;;;;;;4893885;29;20032;-72
2022/09/19 00:03:46;;;;;;;4.63;1.15;;;12.30;99.90;;;;;;4889652;29;20479;-72
2022/09/19 00:06:15;;;;;;;7.07;2.45;;;12.30;99.90;;;;;;4890305;29;20071;-71
2022/09/19 00:08:42;;;;;;;6.38;1.38;;;12.30;99.90;;;;;;4898467;29;20048;-73
2022/09/19 00:11:10;;;;;;;4.50;1.00;;;12.30;99.90;;;;;;4898657;29;20111;-73
2022/09/19 00:13:39;;;;;;;2.67;1.10;;;12.30;99.90;;;;;;4898744;29;20024;-72
2022/09/19 00:16:05;;;;;;;4.78;1.02;;;12.40;99.90;;;;;;4898459;29;20029;-72
2022/09/19 00:18:32;;;;;;;3.85;1.27;;;12.30;99.90;;;;;;4898316;29;20083;-72
2022/09/19 00:20:59;;;;;;;5.40;0.80;;;12.40;99.90;;;;;;4898323;29;20067;-72
2022/09/19 00:26:12;;;;;;;3.53;0.98;;;12.50;99.90;;;;;;4898079;29;20570;-73
2022/09/19 00:28:38;;;;;;;4.10;1.10;;;12.50;99.90;;;;;;4898428;29;20104;-71
2022/09/19 00:31:05;;;;;;;5.80;1.45;;;12.50;99.90;;;;;;4897934;29;20029;-71
2022/09/19 00:33:32;;;;;;;6.70;1.30;;;12.50;99.90;;;;;;4898136;29;20036;-73
2022/09/19 00:36:02;;;;;;;6.57;1.40;;;12.40;99.90;;;;;;4897906;29;20349;-72
2022/09/19 00:38:30;;;;;;;8.88;1.63;;;12.30;99.90;;;;;;4897945;29;20059;-72
2022/09/19 00:40:57;;;;;;;7.63;1.58;;;12.20;99.90;;;;;;4897925;29;20108;-72
2022/09/19 00:43:41;;;;;;;6.05;1.35;;;12.20;99.90;;;;;;4898303;29;20566;-73
2022/09/19 00:46:07;;;;;;;4.25;1.30;;;12.30;99.90;;;;;;4896392;29;20400;-72
2022/09/19 00:48:33;;;;;;;7.07;1.60;;;12.40;99.90;;;;;;4883571;29;20045;-72
2022/09/19 00:51:00;;;;;;;5.05;1.40;;;12.30;99.90;;;;;;4868376;29;20040;-72
2022/09/19 00:53:27;;;;;;;5.83;2.07;;;12.20;99.90;;;;;;4879000;29;20427;-73
2022/09/19 00:55:55;;;;;;;3.63;1.20;;;12.20;99.90;;;;;;4878154;29;20033;-73
2022/09/19 00:58:34;;;;;;;7.13;1.70;;;12.20;99.90;;;;;;4879657;29;20142;-72
2022/09/19 01:01:01;;;;;;;6.05;1.25;;;12.10;99.90;;;;;;4879163;29;20029;-72
2022/09/19 01:03:28;;;;;;;6.95;1.58;;;12.00;99.90;;;;;;4879015;29;20037;-72
2022/09/19 01:06:13;;;;;;;5.00;1.52;;;12.00;99.90;;;;;;4879112;29;20033;-71
2022/09/19 01:09:17;;;;;;;6.85;1.35;;;12.00;99.90;;;;;;4886252;29;20422;-72
2022/09/19 01:12:01;;;;;;;2.92;1.23;;;12.00;99.90;;;;;;4849941;29;20028;-72
2022/09/19 01:15:00;;;;;;;4.03;1.45;;;12.00;99.90;;;;;;4896027;29;20518;-71
2022/09/19 01:17:42;;;;;;;5.90;1.50;;;12.00;99.90;;;;;;4897192;29;20091;-72
2022/09/19 01:20:08;;;;;;;5.25;1.30;;;12.10;99.90;;;;;;4899830;29;20374;-71
2022/09/19 01:22:55;;;;;;;4.90;0.95;;;12.20;99.90;;;;;;4935504;29;20059;-72
2022/09/19 01:25:54;;;;;;;4.13;1.00;;;12.10;99.90;;;;;;4935065;29;20599;-70
2022/09/19 01:28:42;;;;;;;4.53;1.13;;;12.10;99.90;;;;;;4935392;29;20349;-72
2022/09/19 01:31:35;;;;;;;6.13;1.33;;;12.10;99.90;;;;;;4935089;28;20035;-72
2022/09/19 01:34:04;;;;;;;8.88;1.25;;;12.10;99.90;;;;;;4934810;29;20169;-71
2022/09/19 01:37:04;;;;;;;8.18;1.60;;;12.00;99.90;;;;;;4921678;29;20484;-72
2022/09/19 01:39:33;;;;;;;2.17;1.05;;;12.20;99.90;;;;;;4914774;29;20494;-73
2022/09/19 01:41:59;;;;;;;5.82;1.17;;;12.20;99.90;;;;;;4915736;29;20028;-72
2022/09/19 01:44:27;;;;;;;4.40;1.00;;;12.20;99.90;;;;;;4898883;29;20035;-72
2022/09/19 01:47:13;;;;;;;6.15;1.33;;;12.20;99.90;;;;;;4915507;29;20169;-71
2022/09/19 01:50:19;;;;;;;7.88;1.30;;;12.30;99.90;;;;;;4916028;29;20505;-72
2022/09/19 01:52:53;;;;;;;3.97;1.17;;;12.30;99.90;;;;;;4838820;29;20121;-72
2022/09/19 01:55:40;;;;;;;5.35;1.13;;;12.30;99.90;;;;;;4838822;29;20188;-72
2022/09/19 01:58:47;;;;;;;2.40;0.95;;;12.20;99.90;;;;;;4889002;29;20492;-72
2022/09/19 02:01:23;;;;;;;6.13;1.30;;;12.20;99.90;;;;;;4868633;29;20032;-73
2022/09/19 02:04:07;;;;;;;3.75;1.00;;;12.20;99.90;;;;;;4915399;29;20688;-72
2022/09/19 02:07:02;;;;;;;3.92;1.00;;;12.10;99.90;;;;;;4914312;29;20055;-72
2022/09/19 02:09:47;;;;;;;10.13;1.10;;;12.10;99.90;;;;;;4907066;29;20048;-72
2022/09/19 02:12:16;;;;;;;5.63;1.10;;;12.20;99.90;;;;;;4915259;29;20094;-74
2022/09/19 02:14:50;;;;;;;9.25;1.40;;;12.20;99.90;;;;;;4915048;29;20118;-72
2022/09/19 02:17:23;;;;;;;9.68;1.13;;;12.10;99.90;;;;;;4914948;29;20040;-72
2022/09/19 02:19:54;;;;;;;3.75;1.20;;;12.10;99.90;;;;;;4915729;29;20043;-71
2022/09/19 02:22:26;;;;;;;3.85;0.85;;;12.10;99.90;;;;;;4915076;29;20596;-72
2022/09/19 02:24:58;;;;;;;3.20;0.80;;;12.00;99.90;;;;;;4914983;29;20046;-71
2022/09/19 02:27:30;;;;;;;5.85;1.00;;;12.10;99.90;;;;;;4897421;29;20032;-71
2022/09/19 02:30:05;;;;;;;5.38;0.80;;;12.00;99.90;;;;;;4914992;29;20036;-72
2022/09/19 02:32:33;;;;;;;3.67;0.85;;;12.00;99.90;;;;;;4914857;29;20032;-72
2022/09/19 02:34:59;;;;;;;2.67;0.88;;;12.00;99.90;;;;;;4914506;29;20031;-72
2022/09/19 02:37:49;;;;;;;4.72;0.80;;;12.00;99.90;;;;;;4915128;29;20024;-72
2022/09/19 02:40:47;;;;;;;5.03;0.82;;;12.00;99.90;;;;;;4897987;29;20473;-73
2022/09/19 02:43:30;;;;;;;3.88;0.75;;;12.00;99.90;;;;;;4910435;29;20056;-73
2022/09/19 02:46:02;;;;;;;9.43;1.25;;;11.90;99.90;;;;;;4913255;29;20035;-72
2022/09/19 02:48:47;;;;;;;6.10;1.13;;;11.90;99.90;;;;;;4914385;29;20032;-72
2022/09/19 02:51:19;;;;;;;4.35;1.02;;;11.90;99.90;;;;;;4914584;29;20047;-72
2022/09/19 02:53:50;;;;;;;11.18;1.77;;;11.90;99.90;;;;;;4914416;29;20032;-73
2022/09/19 02:56:17;;;;;;;6.50;1.13;;;11.80;99.90;;;;;;4914648;29;20486;-73
2022/09/19 02:58:53;;;;;;;6.45;1.23;;;11.70;99.90;;;;;;4914941;29;20103;-73
2022/09/19 03:01:24;;;;;;;6.95;1.58;;;11.80;99.90;;;;;;4914439;29;20036;-73
2022/09/19 03:04:14;;;;;;;9.10;1.48;;;11.80;99.90;;;;;;4914421;29;20078;-72
2022/09/19 03:07:12;;;;;;;7.55;1.33;;;11.70;99.90;;;;;;4914215;29;20120;-73
2022/09/19 03:09:41;;;;;;;4.43;1.20;;;11.60;99.90;;;;;;4914095;29;20063;-72
2022/09/19 03:12:22;;;;;;;7.63;1.60;;;11.50;99.90;;;;;;4914240;29;20040;-73
2022/09/19 03:14:55;;;;;;;11.98;1.35;;;11.50;99.90;;;;;;4914177;29;20485;-72
2022/09/19 03:17:26;;;;;;;9.50;1.50;;;11.50;99.90;;;;;;4914356;29;20048;-73
2022/09/19 03:19:51;;;;;;;5.40;1.17;;;11.60;99.90;;;;;;4914160;29;20032;-72
2022/09/19 03:22:17;;;;;;;7.70;1.52;;;11.40;99.90;;;;;;4914490;29;20080;-72
2022/09/19 03:24:43;;;;;;;6.60;1.30;;;11.50;99.90;;;;;;4912945;29;20048;-72
2022/09/19 03:27:08;;;;;;;11.02;2.38;;;11.40;99.90;;;;;;4913988;29;20064;-72
2022/09/19 03:29:35;;;;;;;7.45;1.40;;;11.50;99.90;;;;;;4897450;29;20032;-72
2022/09/19 03:32:01;;;;;;;6.70;1.40;;;11.50;99.90;;;;;;4913963;29;20039;-72
2022/09/19 03:34:28;;;;;;;10.73;1.38;;;11.60;99.90;;;;;;4914449;29;20032;-73
2022/09/19 03:36:54;;;;;;;7.93;1.60;;;11.60;99.90;;;;;;4914088;29;20036;-71
2022/09/19 03:39:19;;;;;;;10.93;1.67;;;11.50;99.90;;;;;;4916757;29;20099;-72
2022/09/19 03:41:45;;;;;;;5.30;1.60;;;11.60;99.90;;;;;;4918012;29;20025;-74
2022/09/19 03:44:12;;;;;;;4.93;1.08;;;11.60;99.90;;;;;;4917707;29;20530;-72
2022/09/19 03:46:38;;;;;;;5.15;1.30;;;11.50;99.90;;;;;;4918108;29;20177;-71
2022/09/19 03:49:03;;;;;;;3.75;0.95;;;11.60;99.90;;;;;;4917901;29;20051;-72
2022/09/19 03:51:31;;;;;;;9.10;1.25;;;11.60;99.90;;;;;;4917677;29;20040;-70
2022/09/19 03:53:57;;;;;;;3.87;1.10;;;11.60;99.90;;;;;;4916476;29;20040;-72
2022/09/19 03:56:23;;;;;;;7.32;1.20;;;11.60;99.90;;;;;;4917511;29;20036;-72
2022/09/19 03:58:48;;;;;;;5.80;1.25;;;11.60;99.90;;;;;;4917807;29;20075;-71
2022/09/19 04:01:14;;;;;;;3.67;1.15;;;11.50;99.90;;;;;;4917448;29;20092;-73
2022/09/19 04:03:41;;;;;;;6.80;1.10;;;11.50;99.90;;;;;;4917452;29;20475;-74
2022/09/19 04:06:09;;;;;;;9.13;1.67;;;11.60;99.90;;;;;;4916011;29;20025;-72
2022/09/19 04:08:34;;;;;;;5.80;1.38;;;11.60;99.90;;;;;;4916850;29;20051;-71
2022/09/19 04:11:00;;;;;;;6.45;1.27;;;11.50;99.90;;;;;;4917452;29;20021;-72
2022/09/19 04:13:27;;;;;;;6.28;1.30;;;11.50;99.90;;;;;;4917741;29;20063;-72
2022/09/19 04:15:54;;;;;;;6.95;1.40;;;11.50;99.90;;;;;;4917336;29;20052;-73
2022/09/19 04:18:20;;;;;;;5.15;1.20;;;11.50;99.90;;;;;;4917269;29;20095;-73
2022/09/19 04:20:47;;;;;;;8.38;1.33;;;11.50;99.90;;;;;;4917140;29;20434;-73
2022/09/19 04:23:16;;;;;;;7.22;1.45;;;11.50;99.90;;;;;;4917108;29;20036;-72
2022/09/19 04:25:46;;;;;;;6.15;1.08;;;11.40;99.90;;;;;;4917483;29;20017;-70
2022/09/19 04:28:13;;;;;;;10.70;1.52;;;11.50;99.90;;;;;;4917017;29;20091;-70
2022/09/19 04:30:40;;;;;;;4.50;1.38;;;11.60;99.90;;;;;;4916870;29;20056;-73
2022/09/19 04:33:08;;;;;;;9.13;1.55;;;11.60;99.90;;;;;;4916872;29;20430;-73
2022/09/19 04:35:35;;;;;;;11.70;1.52;;;11.60;99.90;;;;;;4916745;29;20071;-72
2022/09/19 04:38:07;;;;;;;8.25;1.13;;;11.60;99.90;;;;;;4916666;29;20094;-73
2022/09/19 04:40:40;;;;;;;8.88;1.15;;;11.60;99.90;;;;;;4917508;29;20028;-72
2022/09/19 04:43:08;;;;;;;6.90;1.50;;;11.70;99.90;;;;;;4916724;29;20062;-72
2022/09/19 04:45:34;;;;;;;12.10;4.05;;;11.70;99.90;;;;;;4916668;29;20032;-72
2022/09/19 04:48:05;;;;;;;3.60;1.17;;;11.60;99.90;;;;;;4916657;29;20530;-72
2022/09/19 04:50:32;;;;;;;7.95;2.25;;;11.70;99.90;;;;;;4898799;29;20419;-72
2022/09/19 04:52:58;;;;;;;10.02;2.17;;;11.60;99.90;;;;;;4916342;29;20038;-72
2022/09/19 04:55:25;;;;;;;11.88;2.90;;;11.60;99.90;;;;;;4916770;29;20024;-72
2022/09/19 04:57:51;;;;;;;10.70;2.40;;;11.60;99.90;;;;;;4916539;29;20036;-72
2022/09/19 05:00:37;;;;;;;8.00;2.00;;;11.70;99.90;;;;;;4899656;29;20048;-72
2022/09/19 05:03:15;;;;;;;12.95;2.13;;;11.70;99.90;;;;;;4916342;29;20059;-72
2022/09/19 05:05:44;;;;;;;;;;;11.70;99.90;;;;;;4916896;29;20110;-73
2022/09/19 05:08:18;;;;;;;7.55;1.25;;;11.80;99.90;;;;;;4916186;29;20242;-72
2022/09/19 05:10:43;;;;;;;6.22;1.60;;;11.70;99.90;;;;;;4916640;29;20024;-71
2022/09/19 05:13:09;;;;;;;5.63;1.52;;;11.70;99.90;;;;;;4915990;29;20046;-71
2022/09/19 05:15:36;;;;;;;6.07;1.42;;;11.80;99.90;;;;;;4915180;29;20044;-72
2022/09/19 05:18:02;;;;;;;18.98;2.70;;;11.70;99.90;;;;;;4915957;29;20123;-72
2022/09/19 05:20:27;;;;;;;8.95;1.70;;;11.80;99.90;;;;;;4915833;29;20161;-72
2022/09/19 05:23:00;;;;;;;9.88;1.70;;;11.80;99.90;;;;;;4915875;29;20051;-72
2022/09/19 05:25:27;;;;;;;7.38;1.63;;;11.70;99.90;;;;;;4916210;29;20028;-72
2022/09/19 05:27:54;;;;;;;8.57;1.70;;;11.80;99.90;;;;;;4915854;29;20349;-71
2022/09/19 05:30:24;;;;;;;8.57;1.88;;;11.80;99.90;;;;;;4915898;29;20028;-72
2022/09/19 05:32:52;;;;;;;13.15;2.00;;;11.70;99.90;;;;;;4915586;29;20343;-72
2022/09/19 05:35:18;;;;;;;8.68;1.92;;;11.80;99.90;;;;;;4915428;29;20036;-72
2022/09/19 05:37:45;;;;;;;11.23;1.98;;;11.70;99.90;;;;;;4916208;29;20055;-73
2022/09/19 05:40:12;;;;;;;7.63;1.70;;;11.70;99.90;;;;;;4899199;29;20398;-72
2022/09/19 05:42:42;;;;;;;10.13;2.42;;;11.80;99.90;;;;;;4915847;29;20040;-72
2022/09/19 05:45:10;;;;;;;10.75;2.17;;;11.90;99.90;;;;;;4915367;29;20044;-73
2022/09/19 05:47:39;;;;;;;8.52;1.90;;;11.80;99.90;;;;;;4895464;29;20036;-72
2022/09/19 05:50:10;;;;;;;16.02;3.35;;;11.80;99.90;;;;;;4896486;29;20040;-71
2022/09/19 05:55:25;;;;;;;8.20;2.63;;;12.00;99.90;;;;;;4896220;29;20079;-73
2022/09/19 05:57:57;;;;;;;7.70;2.00;;;11.90;99.90;;;;;;4896412;29;20037;-73
2022/09/19 06:00:26;;;;;;;12.32;3.40;;;12.10;99.90;;;;;;4879624;29;20052;-72
2022/09/19 06:02:56;;;;;;;12.68;2.90;;;12.20;99.90;;;;;;4896115;29;20029;-72
2022/09/19 06:05:23;;;;;;;7.13;2.58;;;12.10;99.90;;;;;;4896329;29;20111;-73
2022/09/19 06:07:50;;;;;;;17.52;3.10;;;12.20;99.90;;;;;;4896269;29;20025;-72
2022/09/19 06:10:16;;;;;;;8.32;3.05;;;12.30;99.90;;;;;;4896283;29;20079;-72
2022/09/19 06:12:42;;;;;;;12.68;3.38;;;12.20;99.90;;;;;;4879542;29;20379;-72
2022/09/19 06:15:08;;;;;;;15.25;3.60;;;12.30;99.90;;;;;;4896204;29;20040;-72
2022/09/19 06:17:33;;;;;;;11.00;2.85;;;12.30;99.90;;;;;;4895569;29;20032;-72
2022/09/19 06:19:59;;;;;;;13.40;3.45;;;12.40;99.90;;;;;;4895598;29;20055;-73
2022/09/19 06:22:26;;;;;;;12.75;3.35;;;12.30;99.90;;;;;;4896373;29;20032;-73
2022/09/19 06:24:52;;;;;;;12.02;3.28;;;12.40;99.90;;;;;;4895710;29;20024;-72
2022/09/19 06:27:17;;;;;;;16.60;3.75;;;12.50;99.90;;;;;;4895867;29;20040;-73
2022/09/19 06:29:43;;;;;;;12.90;3.88;;;12.50;99.90;;;;;;4896053;29;20411;-73
2022/09/19 06:32:09;;;;;;;17.55;3.70;;;12.50;99.90;;;;;;4896189;29;20100;-72
2022/09/19 06:34:35;;;;;;;10.52;3.55;;;12.50;99.90;;;;;;4896207;29;20099;-74
2022/09/19 06:37:00;;;;;;;14.55;3.35;;;12.60;99.90;;;;;;4879194;29;20032;-75
2022/09/19 06:39:26;;;;;;;8.70;3.53;;;12.50;99.90;;;;;;4882336;29;20044;-72
2022/09/19 06:41:52;;;;;;;12.20;3.10;;;12.50;99.90;;;;;;4865259;29;20043;-72
2022/09/19 06:44:17;;;;;;;6.68;2.90;;;12.60;99.90;;;;;;4875925;29;20076;-73
2022/09/19 06:46:43;;;;;;;13.63;3.85;;;12.60;99.90;;;;;;4877548;29;20444;-73
2022/09/19 06:49:09;;;;;;;10.70;3.17;;;12.60;99.90;;;;;;4876850;29;20036;-71
2022/09/19 06:51:35;;;;;;;13.95;3.40;;;12.70;99.90;;;;;;4877045;29;20726;-73
2022/09/19 06:54:02;;;;;;;20.13;4.07;;;12.70;99.90;;;;;;4876182;29;20040;-74
2022/09/19 06:56:27;;;;;;;13.23;3.92;;;12.80;99.90;;;;;;4878148;29;20033;-72
2022/09/19 06:58:53;;;;;;;14.52;3.65;;;12.90;99.90;;;;;;4877561;29;20104;-74
2022/09/19 07:01:19;;;;;;;14.90;3.80;;;12.90;99.90;;;;;;4877753;29;20487;-72
2022/09/19 07:03:44;;;;;;;12.93;3.45;;;13.00;99.90;;;;;;4878944;29;20048;-74
2022/09/19 07:06:10;;;;;;;10.73;3.90;;;13.10;99.90;;;;;;4878784;29;20363;-74
2022/09/19 07:08:37;;;;;;;12.70;3.75;;;12.90;99.90;;;;;;4910164;29;20080;-74
2022/09/19 07:11:04;;;;;;;24.93;3.93;;;13.00;99.90;;;;;;4914933;29;20051;-75
2022/09/19 07:13:30;;;;;;;16.40;3.90;;;13.00;99.90;;;;;;4915313;29;20055;-77
2022/09/19 07:16:04;;;;;;;13.07;3.78;;;13.00;99.90;;;;;;4913601;29;20439;-74
2022/09/19 07:18:30;;;;;;;11.05;3.08;;;13.20;99.90;;;;;;4914944;29;20371;-75
2022/09/19 07:21:00;;;;;;;15.18;3.00;;;13.30;99.90;;;;;;4914340;29;20191;-74
2022/09/19 07:23:26;;;;;;;10.30;3.47;;;13.30;99.90;;;;;;4914631;29;20083;-71
2022/09/19 07:25:55;;;;;;;16.40;3.70;;;13.40;99.90;;;;;;4914709;28;20056;-75
2022/09/19 07:28:21;;;;;;;14.30;3.47;;;13.30;99.90;;;;;;4915675;29;20399;-72
2022/09/19 07:30:48;;;;;;;16.08;3.20;;;13.40;99.90;;;;;;4878425;29;20029;-73
2022/09/19 07:33:16;;;;;;;18.65;3.92;;;13.40;99.90;;;;;;4876768;29;20045;-72
2022/09/19 07:35:42;;;;;;;;;;;13.40;99.90;;;;;;4877233;29;20032;-74
2022/09/19 07:38:13;;;;;;;12.65;3.05;;;13.40;99.90;;;;;;4876478;29;20266;-73
2022/09/19 07:40:40;;;;;;;21.48;4.03;;;13.50;99.90;;;;;;4877196;29;20063;-73
2022/09/19 07:43:05;;;;;;;17.52;3.10;;;13.40;99.90;;;;;;4876853;29;20041;-76
2022/09/19 07:45:36;;;;;;;14.90;3.72;;;13.60;99.90;;;;;;4876126;29;20041;-76
2022/09/19 07:48:03;;;;;;;14.68;3.30;;;13.70;99.90;;;;;;4891832;29;20037;-74
2022/09/19 07:50:29;;;;;;;11.53;2.83;;;13.70;99.90;;;;;;4877884;29;20353;-77
2022/09/19 07:53:04;;;;;;;11.40;2.55;;;13.80;99.90;;;;;;4878125;29;20204;-74
2022/09/19 07:55:30;;;;;;;15.73;2.95;;;13.80;99.90;;;;;;4878215;29;20064;-78
2022/09/19 07:57:58;;;;;;;16.45;3.33;;;13.80;99.90;;;;;;4893172;29;20029;-76
2022/09/19 08:00:26;;;;;;;15.32;2.60;;;13.80;99.90;;;;;;4877759;29;20176;-75
2022/09/19 08:02:56;;;;;;;14.60;2.80;;;13.90;99.90;;;;;;4877733;29;20487;-74
2022/09/19 08:05:23;;;;;;;19.85;3.15;;;14.00;99.90;;;;;;4876777;29;20037;-76
2022/09/19 08:07:49;;;;;;;11.90;2.90;;;14.00;99.90;;;;;;4879840;29;20128;-76
2022/09/19 08:10:15;;;;;;;14.60;3.13;;;14.10;99.90;;;;;;4896524;29;20185;-75
2022/09/19 08:12:45;;;;;;;17.95;2.83;;;14.20;99.90;;;;;;4896883;29;20039;-76
2022/09/19 08:15:15;;;;;;;17.00;2.83;;;14.30;99.90;;;;;;4895172;29;20131;-74
2022/09/19 08:18:02;;;;;;;13.20;2.40;;;14.40;99.90;;;;;;4895217;29;20096;-77
2022/09/19 08:20:33;;;;;;;11.90;2.17;;;14.40;99.90;;;;;;4894294;29;20336;-75
2022/09/19 08:23:00;;;;;;;20.67;2.75;;;14.50;99.90;;;;;;4897693;29;20115;-76
2022/09/19 08:25:28;;;;;;;14.68;3.25;;;14.60;99.90;;;;;;4900636;29;20029;-74
2022/09/19 08:27:57;;;;;;;15.55;2.72;;;15.40;99.90;;;;;;4904769;29;20041;-74
2022/09/19 08:30:24;;;;;;;13.38;2.42;;;15.50;99.90;;;;;;4904430;29;20036;-74
2022/09/19 08:32:50;;;;;;;12.20;2.50;;;15.80;99.90;;;;;;4900090;29;20052;-76
2022/09/19 08:35:17;;;;;;;11.73;2.10;;;15.70;99.90;;;;;;4902654;29;20048;-73
2022/09/19 08:37:44;;;;;;;13.45;2.78;;;15.80;99.90;;;;;;4901962;29;20033;-73
2022/09/19 08:40:25;;;;;;;12.85;2.28;;;15.90;99.90;;;;;;4899266;29;20489;-72
2022/09/19 08:43:05;;;;;;;13.85;2.80;;;16.00;99.90;;;;;;4898710;29;20103;-75
2022/09/19 08:45:44;;;;;;;14.93;2.20;;;16.10;99.90;;;;;;4897490;29;20060;-76
2022/09/19 08:48:20;;;;;;;14.63;2.28;;;16.50;99.90;;;;;;4900764;29;20054;-75
2022/09/19 08:50:56;;;;;;;24.70;3.08;;;17.20;99.90;;;;;;4900048;29;20408;-75
2022/09/19 08:53:28;;;;;;;12.10;2.25;;;17.70;99.90;;;;;;4898501;29;20112;-74
2022/09/19 08:56:00;;;;;;;13.40;2.42;;;18.00;98.70;;;;;;4898099;29;20037;-75
2022/09/19 08:58:28;;;;;;;25.77;2.55;;;18.70;98.20;;;;;;4898741;29;20029;-82
2022/09/19 09:00:54;;;;;;;25.92;3.17;;;19.10;98.80;;;;;;4899824;29;20048;-73
2022/09/19 09:03:30;;;;;;;18.83;2.75;;;19.90;98.80;;;;;;4898596;29;20033;-73
2022/09/19 09:06:08;;;;;;;16.35;2.33;;;20.50;97.00;;;;;;4897915;29;20048;-74
2022/09/19 09:08:58;;;;;;;13.50;2.28;;;20.60;95.00;;;;;;4897344;29;20044;-74
2022/09/19 09:11:45;;;;;;;14.95;2.30;;;21.60;95.70;;;;;;4897976;29;20451;-76
2022/09/19 09:14:17;;;;;;;13.63;3.05;;;22.60;94.20;;;;;;4900131;29;20516;-76
2022/09/19 09:16:42;;;;;;;12.68;2.55;;;22.30;93.70;;;;;;4901570;29;20052;-76
2022/09/19 09:19:51;;;;;;;14.13;2.63;;;21.60;92.90;;;;;;4899165;29;20095;-75
2022/09/19 09:22:33;;;;;;;12.23;2.78;;;20.70;92.90;;;;;;4878082;29;20152;-73
2022/09/19 09:25:29;;;;;;;21.70;2.45;;;19.20;94.90;;;;;;4879258;29;20037;-75
2022/09/19 09:28:07;;;;;;;15.57;2.65;;;19.30;95.50;;;;;;4878152;29;20099;-74
2022/09/19 09:30:40;;;;;;;26.40;2.78;;;19.00;95.20;;;;;;4902854;29;20039;-74
2022/09/19 09:33:27;;;;;;;17.90;3.15;;;18.80;95.70;;;;;;4901622;29;20033;-76
2022/09/19 09:36:02;;;;;;;8.80;2.20;;;18.40;96.10;;;;;;4899534;29;20048;-76
2022/09/19 09:38:45;;;;;;;12.90;2.20;;;18.80;95.90;;;;;;4898362;29;20036;-76
2022/09/19 09:41:47;;;;;;;13.35;2.70;;;19.10;95.60;;;;;;4897571;29;20048;-75
2022/09/19 09:44:13;;;;;;;12.65;2.05;;;19.20;95.00;;;;;;4897363;29;20036;-73
2022/09/19 09:47:02;;;;;;;15.48;2.30;;;19.10;95.00;;;;;;4897898;29;20025;-75
2022/09/19 09:49:29;;;;;;;14.50;1.92;;;19.10;95.10;;;;;;4897487;29;20037;-73
2022/09/19 09:52:14;;;;;;;13.03;2.27;;;19.00;94.90;;;;;;4896879;29;20447;-73
2022/09/19 09:58:02;;;;;;;11.82;1.60;;;19.40;94.70;;;;;;4888241;29;20044;-73
2022/09/19 10:03:34;;;;;;;16.13;3.17;;;19.50;93.80;;;;;;4897175;29;20096;-75
2022/09/19 10:06:00;;;;;;;11.60;2.30;;;19.30;94.00;;;;;;4896812;29;20043;-73
2022/09/19 10:08:58;;;;;;;16.27;2.10;;;19.40;93.90;;;;;;4894086;29;20132;-76
2022/09/19 10:11:58;;;;;;;12.60;2.47;;;19.00;94.20;;;;;;4879218;29;20068;-77
2022/09/19 10:14:28;;;;;;;13.45;2.42;;;18.80;94.40;;;;;;4878582;29;20101;-75
2022/09/19 10:16:59;;;;;;;11.45;2.03;;;19.00;94.70;;;;;;4878363;29;20051;-73
2022/09/19 10:19:50;;;;;;;10.55;1.92;;;19.40;94.10;;;;;;4878227;29;20406;-74
2022/09/19 10:22:17;;;;;;;11.55;2.15;;;20.40;93.10;;;;;;4877850;29;20268;-72
2022/09/19 10:24:55;;;;;;;15.23;2.13;;;20.90;91.90;;;;;;4877627;29;20384;-73
2022/09/19 10:27:41;;;;;;;9.93;1.88;;;21.00;91.30;;;;;;4877440;29;20264;-73
2022/09/19 10:30:34;;;;;;;10.13;2.15;;;21.80;90.90;;;;;;4877305;29;20037;-72
2022/09/19 10:33:23;;;;;;;15.07;1.75;;;21.90;88.80;;;;;;4877312;29;20478;-74
2022/09/19 10:35:54;;;;;;;12.35;1.83;;;21.50;89.10;;;;;;4877759;29;20376;-74
2022/09/19 10:38:21;;;;;;;12.18;1.52;;;20.90;88.50;;;;;;4892436;29;20033;-76
2022/09/19 10:40:52;;;;;;;10.25;2.05;;;20.70;90.90;;;;;;4878981;29;20036;-75
2022/09/19 10:43:32;;;;;;;12.63;1.67;;;20.60;91.80;;;;;;4878300;29;20041;-76
2022/09/19 10:46:05;;;;;;;12.13;3.70;;;20.30;91.90;;;;;;4876922;29;20048;-76
2022/09/19 10:48:37;;;;;;;13.02;1.75;;;20.20;92.30;;;;;;4860567;29;20588;-76
2022/09/19 10:51:08;;;;;;;7.40;1.50;;;20.00;93.40;;;;;;4885893;29;20056;-76
2022/09/19 10:53:38;;;;;;;12.45;1.70;;;20.80;93.50;;;;;;4890532;29;20033;-75
2022/09/19 10:56:23;;;;;;;16.35;2.17;;;21.10;93.40;;;;;;4877548;29;20025;-74
2022/09/19 10:59:18;;;;;;;10.65;1.92;;;21.80;91.10;;;;;;4861010;29;20081;-74
2022/09/19 11:02:09;;;;;;;7.25;1.38;;;21.80;91.20;;;;;;4895610;29;20051;-75
2022/09/19 11:04:37;;;;;;;10.95;1.75;;;21.30;90.30;;;;;;4895594;29;20506;-72
2022/09/19 11:07:17;;;;;;;10.13;2.00;;;21.10;89.00;;;;;;4895324;29;20134;-72
2022/09/19 11:09:44;;;;;;;12.27;2.03;;;21.00;90.30;;;;;;4895902;29;20052;-73
2022/09/19 11:12:12;;;;;;;15.63;2.08;;;21.00;90.20;;;;;;4902606;29;20037;-74
2022/09/19 11:14:46;;;;;;;7.55;1.40;;;20.10;90.30;;;;;;4914559;29;20351;-74
2022/09/19 11:17:23;;;;;;;7.55;1.60;;;20.30;90.30;;;;;;4913514;29;20440;-73
2022/09/19 11:20:08;;;;;;;14.77;2.33;;;20.20;90.70;;;;;;4912581;29;20036;-73
2022/09/19 11:22:36;;;;;;;13.82;4.38;;;19.80;91.50;;;;;;4877355;29;20045;-75
2022/09/19 11:25:26;;;;;;;7.25;1.73;;;19.70;91.50;;;;;;4877237;29;20036;-74
2022/09/19 11:28:17;;;;;;;7.13;1.38;;;19.60;91.80;;;;;;4876860;29;20025;-74
2022/09/19 11:30:56;;;;;;;9.18;1.90;;;19.70;92.20;;;;;;4877166;29;20337;-75
2022/09/19 11:33:45;;;;;;;8.35;1.80;;;19.90;92.20;;;;;;4876902;29;20033;-75
2022/09/19 11:36:24;;;;;;;11.27;1.65;;;19.80;91.90;;;;;;4876928;29;20163;-73
2022/09/19 11:39:10;;;;;;;10.60;2.00;;;19.30;92.30;;;;;;4868022;29;20049;-77
2022/09/19 11:41:54;;;;;;;10.07;1.58;;;19.40;92.10;;;;;;4889546;29;20041;-75
2022/09/19 11:44:43;;;;;;;28.13;13.48;;;19.30;92.50;;;;;;4876044;29;20032;-72
2022/09/19 11:47:23;;;;;;;19.08;2.55;;;19.50;92.60;;;;;;4876780;29;20060;-74
2022/09/19 11:50:08;;;;;;;10.38;1.58;;;19.30;92.40;;;;;;4877427;29;20040;-73
2022/09/19 11:52:58;;;;;;;8.82;1.40;;;18.70;91.60;;;;;;4877020;29;20128;-73
2022/09/19 11:55:46;;;;;;;8.90;1.52;;;18.70;92.20;;;;;;4895425;29;20087;-72
2022/09/19 11:58:33;;;;;;;;;;;18.20;92.80;;;;;;4895415;29;20028;-73
2022/09/19 12:01:17;;;;;;;9.35;1.25;;;17.70;93.80;;;;;;4898698;29;19915;-72
2022/09/19 12:04:21;;;;;;;8.95;1.20;;;17.80;94.00;;;;;;4898968;29;20495;-76
2022/09/19 12:06:58;;;;;;;4.38;0.88;;;18.20;93.40;;;;;;4882841;29;20037;-76
2022/09/19 12:09:32;;;;;;;4.63;1.00;;;18.10;92.50;;;;;;4880141;29;20064;-75
2022/09/19 12:12:14;;;;;;;5.22;0.93;;;18.00;92.70;;;;;;4879117;29;20479;-74
2022/09/19 12:14:55;;;;;;;9.60;1.38;;;17.90;92.70;;;;;;4880046;29;20478;-75
2022/09/19 12:17:32;;;;;;;4.95;1.23;;;17.80;92.60;;;;;;4880043;29;20037;-77
2022/09/19 12:20:32;;;;;;;7.95;1.13;;;17.80;93.10;;;;;;4879985;29;20025;-76
2022/09/19 12:25:57;;;;;;;11.00;1.98;;;17.90;94.20;;;;;;4880293;29;20055;-77
2022/09/19 12:28:30;;;;;;;8.40;1.40;;;17.80;94.80;;;;;;4880481;29;20109;-76
2022/09/19 12:31:02;;;;;;;12.30;2.08;;;17.80;95.00;;;;;;4879788;29;20120;-75
2022/09/19 12:33:46;;;;;;;21.45;2.40;;;17.80;95.10;;;;;;4878706;29;20116;-77
2022/09/19 12:36:21;;;;;;;19.42;2.35;;;17.90;95.60;;;;;;4879521;29;20459;-73
2022/09/19 12:39:11;;;;;;;29.38;3.05;;;18.10;95.70;;;;;;4878252;29;20147;-72
2022/09/19 12:41:59;;;;;;;15.43;2.08;;;17.90;95.10;;;;;;4879335;29;20383;-75
2022/09/19 12:44:25;;;;;;;;;;;17.40;95.70;;;;;;4879688;29;20108;-75
2022/09/19 12:47:31;;;;;;;18.73;2.15;;;17.40;96.30;;;;;;4879242;29;20007;-73
2022/09/19 12:50:13;;;;;;;11.25;2.05;;;17.20;96.00;;;;;;4893547;29;20404;-76
2022/09/19 12:52:44;;;;;;;7.25;1.23;;;17.20;96.20;;;;;;4878287;29;20105;-74
2022/09/19 12:55:15;;;;;;;7.03;2.38;;;17.20;96.20;;;;;;4879021;29;20408;-74
2022/09/19 12:58:00;;;;;;;10.43;1.63;;;17.00;96.00;;;;;;4878949;29;20041;-74
2022/09/19 13:00:26;;;;;;;5.82;1.98;;;16.90;96.80;;;;;;4877887;29;20040;-73
2022/09/19 13:03:07;;;;;;;6.60;1.00;;;16.90;96.60;;;;;;4877798;29;20021;-73
2022/09/19 13:06:01;;;;;;;9.00;1.55;;;17.00;96.30;;;;;;4878760;29;20145;-74
2022/09/19 13:08:44;;;;;;;8.18;1.20;;;17.10;97.00;;;;;;4884668;29;20254;-72
2022/09/19 13:11:41;;;;;;;16.25;1.80;;;17.20;97.10;;;;;;4896589;29;20028;-72
2022/09/19 13:14:30;;;;;;;7.78;1.42;;;17.20;97.10;;;;;;4897156;29;20024;-74
2022/09/19 13:25:18;;;;;;;15.35;2.50;;;17.70;96.90;;;;;;4897479;29;20506;-71
2022/09/19 13:27:48;;;;;;;12.45;2.40;;;17.80;97.20;;;;;;4895956;29;20375;-73
2022/09/19 13:31:00;;;;;;;13.15;1.60;;;17.70;97.10;;;;;;4896972;29;20336;-70
2022/09/19 13:33:34;;;;;;;8.00;2.00;;;17.80;97.20;;;;;;4910971;29;20036;-72
2022/09/19 13:36:11;;;;;;;10.18;1.70;;;18.00;97.00;;;;;;4915938;29;20070;-73
2022/09/19 13:38:48;;;;;;;6.30;1.05;;;18.10;96.30;;;;;;4916123;29;20047;-72
2022/09/19 13:41:19;;;;;;;7.18;1.00;;;18.10;96.30;;;;;;4914999;29;20497;-74